Pagrindinis puslapis
METAR-TAF:

METAR-TAF

Oro uostai :

Hemavan, Švedija

platuma: 65-48-22N, ilguma: 015-04-58E, Aukštis: 458 m

Dabartinis oras

Ataskaita buvo paskelbta 32 minutes, ne 07:20 UTC
Vėjas 10 kt iš Pietų/Pietryčių, svyruoja nuo Rytų/Pietryčių ir Pietų
Temperatūra -2°C
Drėgmė 86%
Slėgis 999 hPa
Matomumas: 8000 m
sniegas

METAR: ESUT 250720Z AUTO 16010KT 120V180 8000 -SN ///041/// M02/M04 Q0999

Laikas: 08:52 (07:52 UTC)


TAF: trūkstamas

Orai ataskaitas ir orų prognozės (METAR, TAF).

turimą stotys yra geltonos ir raudonos taškus žemėlapyje.

Perkelti pele per norėdami pamatyti stoties vardą.

Tada spustelėkite, norėdami matyti oro stebėjimo ir prognozės.

Norėdami pakeisti žemėlapį: spustelėkite ant žalios mygtukų su juodo kryžiaus žemyn,; žalią mygtuką su brūkšneliu, jei norite nutolinti; arba žalių rodyklių gretimoms žemėlapius.


METAR-TAF: